EST,Max TemperatureF,Mean TemperatureF,Min TemperatureF,Max Dew PointF,MeanDew PointF,Min DewpointF,Max Humidity, Mean Humidity, Min Humidity, Max Sea Level PressureIn, Mean Sea Level PressureIn, Min Sea Level PressureIn, Max VisibilityMiles, Mean VisibilityMiles, Min VisibilityMiles, Max Wind SpeedMPH, Mean Wind SpeedMPH, Max Gust SpeedMPH,PrecipitationIn, CloudCover, Events, WindDirDegrees
2012-11-1,69,56,42,42,31,16,83,48,13,29.99,29.92,29.86,10,10,10,26,8,32,0.00,0,,271
2012-11-2,77,59,40,47,37,29,70,49,27,30.04,29.98,29.90,10,10,10,21,7,29,0.00,0,,255
2012-11-3,77,62,47,55,49,43,93,62,31,30.12,30.05,29.99,10,10,8,12,3,18,0.00,0,,125
2012-11-4,85,71,56,61,56,53,93,65,37,30.05,29.99,29.91,10,9,6,18,7,23,0.00,4,,239
2012-11-5,67,58,49,55,48,44,93,69,45,30.05,30.00,29.94,10,10,5,15,6,18,T,4,,15
2012-11-6,62,52,42,52,47,38,96,79,62,30.00,29.93,29.88,10,9,5,17,8,21,0.12,6,Rain,19
2012-11-7,57,49,41,41,38,35,89,68,47,30.01,29.94,29.89,10,10,8,14,6,18,0.00,6,,332
2012-11-8,66,52,38,41,37,33,92,61,29,30.18,30.10,30.01,10,8,3,16,5,22,0.00,0,,312
2012-11-9,70,54,37,45,38,34,92,59,26,30.31,30.24,30.17,10,10,10,10,1,17,0.00,0,,180
2012-11-10,73,56,39,46,40,35,92,59,25,30.39,30.34,30.29,10,10,7,14,2,16,0.00,0,Fog,132
2012-11-11,76,62,47,62,55,45,100,75,50,30.42,30.37,30.34,10,10,5,16,4,20,T,5,Fog,78
2012-11-12,77,67,56,64,60,55,100,80,60,30.33,30.27,30.20,10,9,5,18,4,24,0.00,7,Fog,144
2012-11-13,76,64,52,63,59,50,97,83,68,30.27,30.20,30.14,10,10,5,18,6,24,0.09,7,Rain,345
2012-11-14,54,52,50,52,47,44,100,89,77,30.35,30.29,30.23,10,9,3,14,9,18,0.00,8,,30
2012-11-15,52,49,45,48,46,44,93,85,77,30.25,30.22,30.19,10,8,2,16,9,28,0.14,8,Rain,359
2012-11-16,54,51,47,46,45,44,100,86,71,30.30,30.26,30.22,10,7,2,13,7,16,T,8,,4
2012-11-17,60,51,42,45,42,38,89,72,55,30.34,30.30,30.27,10,10,10,17,10,22,0.00,5,,14
2012-11-18,60,56,51,52,47,42,93,78,62,30.30,30.26,30.22,10,9,2,20,12,28,0.10,7,Rain,357
2012-11-19,65,59,52,52,50,48,96,82,67,30.23,30.17,30.13,10,10,3,16,9,22,T,7,Rain,355
2012-11-20,71,59,47,51,48,45,93,70,47,30.16,30.10,30.04,10,10,9,15,4,17,0.00,3,,358
2012-11-21,68,55,41,48,43,40,96,67,37,30.14,30.10,30.06,10,9,2,18,4,23,0.00,0,Fog,4
2012-11-22,67,53,38,39,35,27,92,58,24,30.24,30.18,30.14,10,10,10,17,6,22,0.00,0,,352
2012-11-23,73,53,33,44,38,31,92,62,31,30.21,30.12,29.99,10,10,9,15,5,21,0.00,1,,254
2012-11-24,63,52,40,44,34,25,77,52,27,30.12,30.05,29.99,10,10,10,15,7,23,0.00,0,,301
2012-11-25,64,48,32,44,33,24,93,60,26,30.20,30.14,30.10,10,10,7,8,3,12,0.00,0,,303
2012-11-26,69,51,32,39,31,24,96,57,18,30.27,30.21,30.16,10,10,9,9,2,12,0.00,2,,185
2012-11-27,62,52,42,54,48,40,93,85,76,30.21,30.18,30.12,10,9,2,12,3,15,0.03,8,Rain,305
2012-11-28,55,48,40,52,48,39,100,89,77,30.39,30.29,30.18,8,4,0,13,4,15,T,7,Fog-Rain,349
2012-11-29,65,50,34,45,40,33,100,74,48,30.44,30.39,30.36,10,7,0,13,6,28,0.00,2,Fog,46
2012-11-30,71,58,45,52,48,42,92,71,49,30.38,30.33,30.29,10,10,10,15,6,17,0.00,4,,58